Time;durP1;ratioP1;P1;durP2;ratioP2;P2;SDS_P1;SDS_P2;PMS_P1;PMS_P2;Temp;Humidity;BMP_temperature;BMP_pressure;BME280_temperature;BME280_humidity;BME280_pressure;Samples;Min_cycle;Max_cycle;Signal;HPM_P1;HPM_P2
2024/03/14 00:00:38;;;;;;;0.10;0.10;;;;;;;;;;5077689;28;20242;-72
2024/03/14 00:03:05;;;;;;;0.10;0.10;;;;;;;;;;5096004;28;20226;-72
2024/03/14 00:05:32;;;;;;;0.10;0.10;;;;;;;;;;5077897;28;20281;-73
2024/03/14 00:08:00;;;;;;;0.10;0.10;;;;;;;;;;5097997;28;20265;-72
2024/03/14 00:10:27;;;;;;;0.10;0.10;;;;;;;;;;5080301;28;20462;-72
2024/03/14 00:12:53;;;;;;;0.10;0.10;;;;;;;;;;5100741;28;20256;-72
2024/03/14 00:15:20;;;;;;;0.10;0.10;;;;;;;;;;5078455;28;20205;-73
2024/03/14 00:17:46;;;;;;;0.10;0.10;;;;;;;;;;5101269;28;20208;-73
2024/03/14 00:20:13;;;;;;;0.10;0.10;;;;;;;;;;5076173;28;20213;-72
2024/03/14 00:22:39;;;;;;;0.10;0.10;;;;;;;;;;5102002;28;20284;-73
2024/03/14 00:25:09;;;;;;;0.10;0.10;;;;;;;;;;5085908;28;20241;-73
2024/03/14 00:27:36;;;;;;;0.10;0.10;;;;;;;;;;5059394;28;20300;-73
2024/03/14 00:30:03;;;;;;;0.10;0.10;;;;;;;;;;5085712;28;20213;-73
2024/03/14 00:32:30;;;;;;;0.10;0.10;;;;;;;;;;5092846;28;20411;-73
2024/03/14 00:34:56;;;;;;;0.10;0.10;;;;;;;;;;5085737;28;20205;-73
2024/03/14 00:37:22;;;;;;;0.10;0.10;;;;;;;;;;5093655;28;20298;-73
2024/03/14 00:39:49;;;;;;;0.10;0.10;;;;;;;;;;5085588;28;20248;-73
2024/03/14 00:42:15;;;;;;;0.10;0.10;;;;;;;;;;5094261;28;20299;-72
2024/03/14 00:44:43;;;;;;;13.13;7.03;;;;;;;;;;5085403;28;20240;-72
2024/03/14 00:47:10;;;;;;;0.10;0.10;;;;;;;;;;5095351;28;20459;-72
2024/03/14 00:49:38;;;;;;;0.73;0.73;;;;;;;;;;5085429;28;20210;-72
2024/03/14 00:52:04;;;;;;;0.10;0.10;;;;;;;;;;5094469;28;20265;-72
2024/03/14 00:54:31;;;;;;;0.10;0.10;;;;;;;;;;5085829;28;20198;-72
2024/03/14 00:56:58;;;;;;;0.10;0.10;;;;;;;;;;5093143;28;20234;-72
2024/03/14 00:59:27;;;;;;;0.10;0.10;;;;;;;;;;5086978;28;20232;-72
2024/03/14 01:01:54;;;;;;;0.10;0.10;;;;;;;;;;5092760;28;20249;-72
2024/03/14 01:04:21;;;;;;;0.10;0.10;;;;;;;;;;5087336;28;20226;-73
2024/03/14 01:06:48;;;;;;;0.10;0.10;;;;;;;;;;5091478;28;20244;-72
2024/03/14 01:09:16;;;;;;;0.10;0.10;;;;;;;;;;5088029;28;20425;-72
2024/03/14 01:11:43;;;;;;;0.10;0.10;;;;;;;;;;5090935;28;20240;-73
2024/03/14 01:14:11;;;;;;;0.10;0.10;;;;;;;;;;5088586;28;20448;-72
2024/03/14 01:16:38;;;;;;;0.10;0.10;;;;;;;;;;5090292;28;20239;-72
2024/03/14 01:19:06;;;;;;;0.10;0.10;;;;;;;;;;5087772;28;20275;-72
2024/03/14 01:21:35;;;;;;;0.10;0.10;;;;;;;;;;5089596;28;20510;-72
2024/03/14 01:24:01;;;;;;;0.10;0.10;;;;;;;;;;5089226;28;20235;-73
2024/03/14 01:26:28;;;;;;;0.10;0.10;;;;;;;;;;5088531;28;20245;-73
2024/03/14 01:28:54;;;;;;;0.10;0.10;;;;;;;;;;5090131;28;20241;-73
2024/03/14 01:31:20;;;;;;;0.10;0.10;;;;;;;;;;5087437;28;20258;-72
2024/03/14 01:33:47;;;;;;;0.10;0.10;;;;;;;;;;5091391;28;20474;-73
2024/03/14 01:36:14;;;;;;;0.10;0.10;;;;;;;;;;5086301;28;20251;-73
2024/03/14 01:38:41;;;;;;;0.10;0.10;;;;;;;;;;5092240;28;20206;-73
2024/03/14 01:41:16;;;;;;;0.10;0.10;;;;;;;;;;5085588;28;20237;-72
2024/03/14 01:43:42;;;;;;;0.10;0.10;;;;;;;;;;5091519;28;20244;-73
2024/03/14 01:46:09;;;;;;;0.10;0.10;;;;;;;;;;5085544;28;20308;-73
2024/03/14 01:48:35;;;;;;;0.10;0.10;;;;;;;;;;5092468;28;20228;-73
2024/03/14 01:51:02;;;;;;;0.10;0.10;;;;;;;;;;5084418;28;20316;-72
2024/03/14 01:53:28;;;;;;;0.10;0.10;;;;;;;;;;5093784;28;20534;-73
2024/03/14 01:55:54;;;;;;;0.40;0.40;;;;;;;;;;5083246;28;20318;-72
2024/03/14 01:58:25;;;;;;;0.10;0.10;;;;;;;;;;5094602;28;20274;-72
2024/03/14 02:00:51;;;;;;;0.10;0.10;;;;;;;;;;5083281;28;20238;-72
2024/03/14 02:03:18;;;;;;;0.10;0.10;;;;;;;;;;5094875;28;20297;-72
2024/03/14 02:05:45;;;;;;;0.10;0.10;;;;;;;;;;5081675;28;20482;-72
2024/03/14 02:08:12;;;;;;;1.03;1.03;;;;;;;;;;5095735;28;20508;-71
2024/03/14 02:10:39;;;;;;;0.10;0.10;;;;;;;;;;5080692;28;20244;-71
2024/03/14 02:13:05;;;;;;;0.10;0.10;;;;;;;;;;5096204;28;20201;-71
2024/03/14 02:15:32;;;;;;;0.10;0.10;;;;;;;;;;5079489;28;20244;-71
2024/03/14 02:17:59;;;;;;;0.10;0.10;;;;;;;;;;5097492;28;20260;-71
2024/03/14 02:20:25;;;;;;;0.10;0.10;;;;;;;;;;5077640;28;20204;-72
2024/03/14 02:22:52;;;;;;;0.10;0.10;;;;;;;;;;5098025;28;20228;-72
2024/03/14 02:25:19;;;;;;;0.10;0.10;;;;;;;;;;5075621;28;20205;-72
2024/03/14 02:27:46;;;;;;;0.10;0.10;;;;;;;;;;5098629;28;20195;-72
2024/03/14 02:30:12;;;;;;;0.10;0.10;;;;;;;;;;5073604;28;20214;-72
2024/03/14 02:32:38;;;;;;;0.10;0.10;;;;;;;;;;5099626;28;20213;-72
2024/03/14 02:35:05;;;;;;;0.10;0.10;;;;;;;;;;5083394;28;20276;-72
2024/03/14 02:37:32;;;;;;;0.10;0.10;;;;;;;;;;5089892;28;20244;-73
2024/03/14 02:39:59;;;;;;;0.10;0.10;;;;;;;;;;5083363;28;20214;-72
2024/03/14 02:42:25;;;;;;;0.10;0.10;;;;;;;;;;5090584;28;20262;-71
2024/03/14 02:44:51;;;;;;;0.10;0.10;;;;;;;;;;5083068;28;20251;-73
2024/03/14 02:47:18;;;;;;;0.10;0.10;;;;;;;;;;5091628;28;20244;-72
2024/03/14 02:49:44;;;;;;;0.10;0.10;;;;;;;;;;5083194;28;20207;-72
2024/03/14 02:52:11;;;;;;;0.10;0.10;;;;;;;;;;5092678;28;20235;-72
2024/03/14 02:54:37;;;;;;;0.10;0.10;;;;;;;;;;5083043;28;20206;-72
2024/03/14 02:57:04;;;;;;;0.20;0.20;;;;;;;;;;5091856;28;20489;-71
2024/03/14 02:59:31;;;;;;;0.10;0.10;;;;;;;;;;5083474;28;20204;-73
2024/03/14 03:01:58;;;;;;;0.10;0.10;;;;;;;;;;5090652;28;20241;-72
2024/03/14 03:04:24;;;;;;;0.10;0.10;;;;;;;;;;5084503;28;20598;-72
2024/03/14 03:06:53;;;;;;;0.10;0.10;;;;;;;;;;5089788;28;20262;-72
2024/03/14 03:09:21;;;;;;;0.10;0.10;;;;;;;;;;5084992;28;20415;-70
2024/03/14 03:11:47;;;;;;;0.10;0.10;;;;;;;;;;5089329;28;20248;-72
2024/03/14 03:14:14;;;;;;;0.10;0.10;;;;;;;;;;5085783;28;20202;-72
2024/03/14 03:16:40;;;;;;;0.10;0.10;;;;;;;;;;5088308;28;20286;-72
2024/03/14 03:19:09;;;;;;;0.10;0.10;;;;;;;;;;5086755;28;20504;-72
2024/03/14 03:21:37;;;;;;;0.10;0.10;;;;;;;;;;5088074;28;20435;-72
2024/03/14 03:24:03;;;;;;;0.10;0.10;;;;;;;;;;5086825;28;20221;-72
2024/03/14 03:26:29;;;;;;;0.10;0.10;;;;;;;;;;5086491;28;20245;-72
2024/03/14 03:28:55;;;;;;;0.10;0.10;;;;;;;;;;5087986;28;20450;-72
2024/03/14 03:31:21;;;;;;;0.10;0.10;;;;;;;;;;5085409;28;20246;-72
2024/03/14 03:33:46;;;;;;;0.10;0.10;;;;;;;;;;5088703;28;20227;-72
2024/03/14 03:36:14;;;;;;;0.10;0.10;;;;;;;;;;5084258;28;20243;-72
2024/03/14 03:38:39;;;;;;;0.10;0.10;;;;;;;;;;5089791;28;20206;-72
2024/03/14 03:41:06;;;;;;;0.10;0.10;;;;;;;;;;5082787;28;20248;-72
2024/03/14 03:43:32;;;;;;;0.10;0.10;;;;;;;;;;5090693;28;20225;-72
2024/03/14 03:45:58;;;;;;;0.10;0.10;;;;;;;;;;5082227;28;20580;-72
2024/03/14 03:48:24;;;;;;;0.10;0.10;;;;;;;;;;5091949;28;20207;-72
2024/03/14 03:50:50;;;;;;;0.10;0.10;;;;;;;;;;5081070;28;20283;-72
2024/03/14 03:53:16;;;;;;;0.10;0.10;;;;;;;;;;5092942;28;20210;-72
2024/03/14 03:55:43;;;;;;;0.10;0.10;;;;;;;;;;5079617;28;20247;-72
2024/03/14 03:58:09;;;;;;;0.10;0.10;;;;;;;;;;5094187;28;20206;-72
2024/03/14 04:00:41;;;;;;;0.10;0.10;;;;;;;;;;5078721;28;20588;-72
2024/03/14 04:03:07;;;;;;;0.10;0.10;;;;;;;;;;5094127;28;20212;-72
2024/03/14 04:05:34;;;;;;;0.10;0.10;;;;;;;;;;5078293;28;20244;-72
2024/03/14 04:07:59;;;;;;;0.10;0.10;;;;;;;;;;5095574;28;20195;-72
2024/03/14 04:10:26;;;;;;;0.10;0.10;;;;;;;;;;5076344;28;20584;-72
2024/03/14 04:12:53;;;;;;;0.10;0.10;;;;;;;;;;5096216;28;20224;-72
2024/03/14 04:15:19;;;;;;;0.10;0.10;;;;;;;;;;5074766;28;20209;-72
2024/03/14 04:17:46;;;;;;;0.10;0.10;;;;;;;;;;5097097;28;20220;-72
2024/03/14 04:20:12;;;;;;;0.10;0.10;;;;;;;;;;5072388;28;20254;-72
2024/03/14 04:22:40;;;;;;;0.10;0.10;;;;;;;;;;5098268;28;20196;-72
2024/03/14 04:25:10;;;;;;;0.10;0.10;;;;;;;;;;5082000;28;20225;-71
2024/03/14 04:27:37;;;;;;;0.10;0.10;;;;;;;;;;5055376;28;20207;-72
2024/03/14 04:30:05;;;;;;;0.10;0.10;;;;;;;;;;5081862;28;20234;-72
2024/03/14 04:32:32;;;;;;;0.10;0.10;;;;;;;;;;5088715;28;20242;-72
2024/03/14 04:34:59;;;;;;;0.10;0.10;;;;;;;;;;5081921;28;20447;-71
2024/03/14 04:37:25;;;;;;;0.10;0.10;;;;;;;;;;5089183;28;20238;-72
2024/03/14 04:39:53;;;;;;;0.10;0.10;;;;;;;;;;5081966;28;20207;-71
2024/03/14 04:42:20;;;;;;;0.10;0.10;;;;;;;;;;5090194;28;20284;-71
2024/03/14 04:44:46;;;;;;;0.10;0.10;;;;;;;;;;5081824;28;20253;-71
2024/03/14 04:47:13;;;;;;;0.10;0.10;;;;;;;;;;5090853;28;20253;-71
2024/03/14 04:49:40;;;;;;;0.10;0.10;;;;;;;;;;5081968;28;20244;-71
2024/03/14 04:52:06;;;;;;;0.10;0.10;;;;;;;;;;5090776;28;20482;-72
2024/03/14 04:54:33;;;;;;;0.10;0.10;;;;;;;;;;5084973;28;20201;-72
2024/03/14 04:57:01;;;;;;;0.10;0.10;;;;;;;;;;5093604;28;20246;-72
2024/03/14 04:59:27;;;;;;;0.10;0.10;;;;;;;;;;5086240;28;20206;-71
2024/03/14 05:01:54;;;;;;;0.10;0.10;;;;;;;;;;5092207;28;20241;-71
2024/03/14 05:04:21;;;;;;;0.10;0.10;;;;;;;;;;5087059;28;20249;-72
2024/03/14 05:06:48;;;;;;;0.10;0.10;;;;;;;;;;5091123;28;20493;-72
2024/03/14 05:09:14;;;;;;;0.10;0.10;;;;;;;;;;5088225;28;20205;-71
2024/03/14 05:11:41;;;;;;;0.20;0.20;;;;;;;;;;5090547;28;20243;-72
2024/03/14 05:14:08;;;;;;;0.10;0.10;;;;;;;;;;5088907;28;20202;-71
2024/03/14 05:16:34;;;;;;;0.10;0.10;;;;;;;;;;5089691;28;20238;-71
2024/03/14 05:19:01;;;;;;;0.10;0.10;;;;;;;;;;5089509;28;20217;-71
2024/03/14 05:21:27;;;;;;;0.03;0.03;;;;;;;;;;5088555;28;20316;-72
2024/03/14 05:23:54;;;;;;;0.10;0.10;;;;;;;;;;5090577;28;20310;-71
2024/03/14 05:26:21;;;;;;;0.10;0.10;;;;;;;;;;5087796;28;20322;-71
2024/03/14 05:28:47;;;;;;;0.10;0.10;;;;;;;;;;5091221;28;20244;-72
2024/03/14 05:31:13;;;;;;;0.10;0.10;;;;;;;;;;5086612;28;20453;-72
2024/03/14 05:33:42;;;;;;;0.10;0.10;;;;;;;;;;5091931;28;20538;-72
2024/03/14 05:36:08;;;;;;;0.10;0.10;;;;;;;;;;5085928;28;20241;-72
2024/03/14 05:38:35;;;;;;;0.00;0.00;;;;;;;;;;5092932;28;20238;-73
2024/03/14 05:41:01;;;;;;;0.10;0.10;;;;;;;;;;5084461;28;20306;-71
2024/03/14 05:43:26;;;;;;;0.10;0.10;;;;;;;;;;5093922;28;20211;-71
2024/03/14 05:45:53;;;;;;;0.10;0.10;;;;;;;;;;5083262;28;20252;-72
2024/03/14 05:48:23;;;;;;;0.10;0.10;;;;;;;;;;5094660;28;20213;-72
2024/03/14 05:50:49;;;;;;;0.10;0.10;;;;;;;;;;5082898;28;20245;-72
2024/03/14 05:53:16;;;;;;;0.10;0.10;;;;;;;;;;5095448;28;20553;-72
2024/03/14 05:55:42;;;;;;;0.10;0.10;;;;;;;;;;5081900;28;20240;-72
2024/03/14 05:58:09;;;;;;;0.10;0.10;;;;;;;;;;5096082;28;20543;-72
2024/03/14 06:00:35;;;;;;;0.10;0.10;;;;;;;;;;5079835;28;20240;-71
2024/03/14 06:03:02;;;;;;;0.10;0.10;;;;;;;;;;5097424;28;20196;-71
2024/03/14 06:05:30;;;;;;;0.10;0.10;;;;;;;;;;5078480;28;20251;-71
2024/03/14 06:07:56;;;;;;;0.10;0.10;;;;;;;;;;5097689;28;20215;-72
2024/03/14 06:10:22;;;;;;;0.10;0.10;;;;;;;;;;5077261;28;20577;-71
2024/03/14 06:12:49;;;;;;;0.10;0.10;;;;;;;;;;5098736;28;20205;-72
2024/03/14 06:15:17;;;;;;;0.10;0.10;;;;;;;;;;5075040;28;20242;-72
2024/03/14 06:17:44;;;;;;;0.10;0.10;;;;;;;;;;5082694;28;20196;-72
2024/03/14 06:20:11;;;;;;;0.10;0.10;;;;;;;;;;5073885;28;20216;-72
2024/03/14 06:22:39;;;;;;;0.10;0.10;;;;;;;;;;5099910;28;20233;-72
2024/03/14 06:25:07;;;;;;;0.10;0.10;;;;;;;;;;5083355;28;20224;-72
2024/03/14 06:27:33;;;;;;;0.10;0.10;;;;;;;;;;5056523;28;20207;-73
2024/03/14 06:30:00;;;;;;;0.10;0.10;;;;;;;;;;5083532;28;20213;-72
2024/03/14 06:32:26;;;;;;;0.10;0.10;;;;;;;;;;5090789;28;20309;-72
2024/03/14 06:34:53;;;;;;;0.10;0.10;;;;;;;;;;5083161;28;20244;-71
2024/03/14 06:37:19;;;;;;;0.10;0.10;;;;;;;;;;5091497;28;20307;-71
2024/03/14 06:39:46;;;;;;;0.10;0.10;;;;;;;;;;5083265;28;20244;-71
2024/03/14 06:42:12;;;;;;;0.10;0.10;;;;;;;;;;5092358;28;20456;-72
2024/03/14 06:44:40;;;;;;;0.10;0.10;;;;;;;;;;5083103;28;20226;-72
2024/03/14 06:47:07;;;;;;;0.10;0.10;;;;;;;;;;5092555;28;20582;-72
2024/03/14 06:49:36;;;;;;;0.10;0.10;;;;;;;;;;5083282;28;20246;-72
2024/03/14 06:52:05;;;;;;;0.10;0.10;;;;;;;;;;5092020;28;20240;-71
2024/03/14 06:54:32;;;;;;;0.10;0.10;;;;;;;;;;5083449;28;20274;-71
2024/03/14 06:57:00;;;;;;;0.10;0.10;;;;;;;;;;5091098;28;20238;-72
2024/03/14 06:59:27;;;;;;;0.10;0.10;;;;;;;;;;5084147;28;20208;-72
2024/03/14 07:01:55;;;;;;;0.10;0.10;;;;;;;;;;5090694;28;20241;-71
2024/03/14 07:04:22;;;;;;;0.10;0.10;;;;;;;;;;5084463;28;20266;-72
2024/03/14 07:06:48;;;;;;;0.10;0.10;;;;;;;;;;5089563;28;20239;-72
2024/03/14 07:09:17;;;;;;;0.10;0.10;;;;;;;;;;5085432;28;20276;-71
2024/03/14 07:11:45;;;;;;;0.10;0.10;;;;;;;;;;5088992;28;20280;-72
2024/03/14 07:14:12;;;;;;;0.10;0.10;;;;;;;;;;5085741;28;20207;-72
2024/03/14 07:16:39;;;;;;;0.10;0.10;;;;;;;;;;5087250;28;20542;-72
2024/03/14 07:19:06;;;;;;;0.10;0.10;;;;;;;;;;5086491;28;20273;-72
2024/03/14 07:21:33;;;;;;;0.10;0.10;;;;;;;;;;5087131;28;20238;-72
2024/03/14 07:24:00;;;;;;;0.03;0.03;;;;;;;;;;5087893;28;20429;-72
2024/03/14 07:26:32;;;;;;;0.10;0.10;;;;;;;;;;5086270;28;20245;-71
2024/03/14 07:28:58;;;;;;;0.10;0.10;;;;;;;;;;5087626;28;20208;-72
2024/03/14 07:31:28;;;;;;;0.10;0.10;;;;;;;;;;5085923;28;20247;-73
2024/03/14 07:33:54;;;;;;;0.10;0.10;;;;;;;;;;5088280;28;20493;-71
2024/03/14 07:38:34;;;;;;;0.10;0.10;;;;;;;;;;5134327;27;20587;-71
2024/03/14 07:41:00;;;;;;;0.10;0.10;;;;;;;;;;5085798;28;20239;-72
2024/03/14 07:43:27;;;;;;;0.10;0.10;;;;;;;;;;5069279;28;20249;-72
2024/03/14 07:45:53;;;;;;;0.10;0.10;;;;;;;;;;5053023;28;20298;-72
2024/03/14 07:48:21;;;;;;;0.10;0.10;;;;;;;;;;5059748;28;20474;-71
2024/03/14 07:50:47;;;;;;;0.10;0.10;;;;;;;;;;5053140;28;20263;-73
2024/03/14 07:53:14;;;;;;;0.10;0.10;;;;;;;;;;5059509;28;20511;-72
2024/03/14 07:55:41;;;;;;;0.10;0.10;;;;;;;;;;5052843;28;20301;-72
2024/03/14 07:58:08;;;;;;;0.10;0.10;;;;;;;;;;5059248;28;20201;-72
2024/03/14 08:00:34;;;;;;;0.10;0.10;;;;;;;;;;5052501;28;20240;-73
2024/03/14 08:03:01;;;;;;;0.10;0.10;;;;;;;;;;5059288;28;20455;-72
2024/03/14 08:05:31;;;;;;;0.10;0.10;;;;;;;;;;5051620;28;20212;-72
2024/03/14 08:07:58;;;;;;;0.10;0.10;;;;;;;;;;5059403;28;20402;-72
2024/03/14 08:10:24;;;;;;;0.10;0.10;;;;;;;;;;5049240;28;20473;-71
2024/03/14 08:12:51;;;;;;;0.33;0.33;;;;;;;;;;5044824;28;20212;-72
2024/03/14 08:15:17;;;;;;;0.10;0.10;;;;;;;;;;5049218;28;20281;-72
2024/03/14 08:17:44;;;;;;;0.47;0.47;;;;;;;;;;5043878;28;20239;-72
2024/03/14 08:20:15;;;;;;;0.10;0.10;;;;;;;;;;5049185;28;20244;-72
2024/03/14 08:22:42;;;;;;;0.10;0.10;;;;;;;;;;5043463;28;20200;-71
2024/03/14 08:25:15;;;;;;;0.10;0.10;;;;;;;;;;5058861;28;20280;-72
2024/03/14 08:27:42;;;;;;;0.10;0.10;;;;;;;;;;5028667;28;20213;-72
2024/03/14 08:30:10;;;;;;;1.73;0.77;;;;;;;;;;5038874;28;20238;-72
2024/03/14 08:32:37;;;;;;;0.10;0.10;;;;;;;;;;5032291;28;20221;-72
2024/03/14 08:35:05;;;;;;;0.10;0.10;;;;;;;;;;5058958;28;20225;-74
2024/03/14 08:37:31;;;;;;;0.10;0.10;;;;;;;;;;5032566;28;20257;-71
2024/03/14 08:39:58;;;;;;;0.10;0.10;;;;;;;;;;5058866;28;20395;-73
2024/03/14 08:42:31;;;;;;;0.10;0.10;;;;;;;;;;5033525;28;20589;-73
2024/03/14 08:44:57;;;;;;;0.10;0.10;;;;;;;;;;5058926;28;20222;-73
2024/03/14 08:47:24;;;;;;;0.10;0.10;;;;;;;;;;5033132;28;20314;-72
2024/03/14 08:49:50;;;;;;;0.10;0.10;;;;;;;;;;5045876;28;20210;-73
2024/03/14 08:52:17;;;;;;;0.03;0.03;;;;;;;;;;5020924;28;20284;-72
2024/03/14 08:54:45;;;;;;;0.10;0.10;;;;;;;;;;5045182;28;20381;-72
2024/03/14 08:57:12;;;;;;;0.10;0.10;;;;;;;;;;5021875;28;20250;-73
2024/03/14 08:59:39;;;;;;;0.10;0.10;;;;;;;;;;5045134;28;20507;-73
2024/03/14 09:02:07;;;;;;;0.10;0.10;;;;;;;;;;5022341;28;20498;-73
2024/03/14 09:04:35;;;;;;;0.00;0.00;;;;;;;;;;5044923;28;20435;-73
2024/03/14 09:07:02;;;;;;;0.10;0.10;;;;;;;;;;5022820;28;20438;-73
2024/03/14 09:09:34;;;;;;;0.10;0.10;;;;;;;;;;5043518;28;20250;-72
2024/03/14 09:12:09;;;;;;;0.10;0.10;;;;;;;;;;5023422;28;20289;-73
2024/03/14 09:14:36;;;;;;;0.00;0.00;;;;;;;;;;5044953;28;20193;-73
2024/03/14 09:17:04;;;;;;;0.00;0.00;;;;;;;;;;5022334;28;20462;-73
2024/03/14 09:19:31;;;;;;;0.10;0.10;;;;;;;;;;5044000;28;20274;-73
2024/03/14 09:21:57;;;;;;;0.10;0.10;;;;;;;;;;5022874;28;20426;-73
2024/03/14 09:24:24;;;;;;;0.10;0.10;;;;;;;;;;5042862;28;20515;-73
2024/03/14 09:26:50;;;;;;;0.10;0.10;;;;;;;;;;5023612;28;20247;-74
2024/03/14 09:29:21;;;;;;;0.10;0.10;;;;;;;;;;5041768;28;20208;-73
2024/03/14 09:31:48;;;;;;;0.10;0.10;;;;;;;;;;5024571;28;20301;-73
2024/03/14 09:34:15;;;;;;;0.10;0.10;;;;;;;;;;5041621;28;20199;-72
2024/03/14 09:36:42;;;;;;;0.10;0.10;;;;;;;;;;5024659;28;20244;-73
2024/03/14 09:39:18;;;;;;;0.10;0.10;;;;;;;;;;5040707;28;20252;-73
2024/03/14 09:41:46;;;;;;;0.10;0.10;;;;;;;;;;5025611;28;20256;-73
2024/03/14 09:44:12;;;;;;;0.10;0.10;;;;;;;;;;5041254;28;20282;-72
2024/03/14 09:46:39;;;;;;;0.10;0.10;;;;;;;;;;5025209;28;20502;-73
2024/03/14 09:49:07;;;;;;;0.10;0.10;;;;;;;;;;5039698;28;20267;-72
2024/03/14 09:51:33;;;;;;;0.10;0.10;;;;;;;;;;5025926;28;20241;-73
2024/03/14 09:54:00;;;;;;;0.10;0.10;;;;;;;;;;5039364;28;20277;-73
2024/03/14 09:56:27;;;;;;;0.10;0.10;;;;;;;;;;5026323;28;20242;-73
2024/03/14 09:58:56;;;;;;;0.10;0.10;;;;;;;;;;5038096;28;20245;-72
2024/03/14 10:01:22;;;;;;;0.10;0.10;;;;;;;;;;5026301;28;20279;-74
2024/03/14 10:03:49;;;;;;;0.10;0.10;;;;;;;;;;5037621;28;20401;-74
2024/03/14 10:06:17;;;;;;;0.10;0.10;;;;;;;;;;5027683;28;20311;-73
2024/03/14 10:08:47;;;;;;;0.10;0.10;;;;;;;;;;5036473;28;20255;-73
2024/03/14 10:11:14;;;;;;;0.10;0.10;;;;;;;;;;5027724;28;20247;-74
2024/03/14 10:13:41;;;;;;;0.10;0.10;;;;;;;;;;5036339;28;20502;-73
2024/03/14 10:16:07;;;;;;;0.10;0.10;;;;;;;;;;5028745;28;20443;-73
2024/03/14 10:18:34;;;;;;;0.10;0.10;;;;;;;;;;5035007;28;20210;-73
2024/03/14 10:21:03;;;;;;;0.10;0.10;;;;;;;;;;5029447;28;20249;-74
2024/03/14 10:23:30;;;;;;;0.10;0.10;;;;;;;;;;5034771;28;20206;-74
2024/03/14 10:25:57;;;;;;;0.10;0.10;;;;;;;;;;5030169;28;20505;-74
2024/03/14 10:28:28;;;;;;;0.10;0.10;;;;;;;;;;5033689;28;20232;-72
2024/03/14 10:30:57;;;;;;;0.10;0.10;;;;;;;;;;5030971;28;20570;-74
2024/03/14 10:33:26;;;;;;;0.10;0.10;;;;;;;;;;5033621;28;20254;-75
2024/03/14 10:35:55;;;;;;;0.10;0.10;;;;;;;;;;5030367;28;20247;-73
2024/03/14 10:38:25;;;;;;;0.10;0.10;;;;;;;;;;5032898;28;20216;-75
2024/03/14 10:40:51;;;;;;;0.10;0.10;;;;;;;;;;5030959;28;20266;-75
2024/03/14 10:43:18;;;;;;;0.10;0.10;;;;;;;;;;5032642;28;20207;-73
2024/03/14 10:45:44;;;;;;;0.03;0.03;;;;;;;;;;5031198;28;20304;-72
2024/03/14 10:48:11;;;;;;;0.03;0.03;;;;;;;;;;5031199;28;20426;-72
2024/03/14 10:50:37;;;;;;;0.00;0.00;;;;;;;;;;5031998;28;20302;-72
2024/03/14 10:53:05;;;;;;;0.10;0.10;;;;;;;;;;5030674;28;20205;-72
2024/03/14 10:55:32;;;;;;;0.10;0.10;;;;;;;;;;5032494;28;20260;-72
2024/03/14 10:57:59;;;;;;;0.10;0.10;;;;;;;;;;5029848;28;20245;-72
2024/03/14 11:00:25;;;;;;;0.10;0.10;;;;;;;;;;5032689;28;20275;-72
2024/03/14 11:02:52;;;;;;;0.10;0.10;;;;;;;;;;5028805;28;20494;-73
2024/03/14 11:05:22;;;;;;;0.10;0.10;;;;;;;;;;5032435;28;20206;-76
2024/03/14 11:07:51;;;;;;;0.10;0.10;;;;;;;;;;5028458;28;20223;-77
2024/03/14 11:10:17;;;;;;;0.10;0.10;;;;;;;;;;5032596;28;20250;-76
2024/03/14 11:12:46;;;;;;;0.00;0.00;;;;;;;;;;5027473;28;20241;-77
2024/03/14 11:15:13;;;;;;;0.10;0.10;;;;;;;;;;5032330;28;20205;-76
2024/03/14 11:17:40;;;;;;;0.10;0.10;;;;;;;;;;5027147;28;20449;-76
2024/03/14 11:20:09;;;;;;;0.10;0.10;;;;;;;;;;5042490;28;20205;-75
2024/03/14 11:22:36;;;;;;;0.10;0.10;;;;;;;;;;5013264;28;20235;-75
2024/03/14 11:25:02;;;;;;;0.10;0.10;;;;;;;;;;5022471;28;20272;-73
2024/03/14 11:27:29;;;;;;;0.10;0.10;;;;;;;;;;5013468;28;20240;-75
2024/03/14 11:29:57;;;;;;;2.47;2.40;;;;;;;;;;5022888;28;20276;-73
2024/03/14 11:32:29;;;;;;;0.10;0.10;;;;;;;;;;4997986;28;20586;-69
2024/03/14 11:34:58;;;;;;;0.10;0.10;;;;;;;;;;5022502;28;20220;-74
2024/03/14 11:37:26;;;;;;;0.10;0.10;;;;;;;;;;4997637;28;20312;-71
2024/03/14 11:39:53;;;;;;;0.10;0.10;;;;;;;;;;5022674;28;20230;-72
2024/03/14 11:42:21;;;;;;;0.10;0.10;;;;;;;;;;4998234;28;20249;-71
2024/03/14 11:44:47;;;;;;;0.10;0.10;;;;;;;;;;5022381;28;20211;-71
2024/03/14 11:47:15;;;;;;;0.00;0.00;;;;;;;;;;4998940;28;20263;-71
2024/03/14 11:49:43;;;;;;;0.10;0.10;;;;;;;;;;5022267;28;20240;-72
2024/03/14 11:52:11;;;;;;;0.10;0.10;;;;;;;;;;4999460;28;20243;-72
2024/03/14 11:54:37;;;;;;;0.10;0.10;;;;;;;;;;5022536;28;20233;-72
2024/03/14 11:57:05;;;;;;;0.10;0.10;;;;;;;;;;4999948;28;20244;-72
2024/03/14 11:59:31;;;;;;;0.10;0.10;;;;;;;;;;5038097;28;20275;-72
2024/03/14 12:01:58;;;;;;;0.10;0.10;;;;;;;;;;5001156;28;20232;-71
2024/03/14 12:04:24;;;;;;;0.10;0.10;;;;;;;;;;5036684;28;20539;-71
2024/03/14 12:06:51;;;;;;;0.10;0.10;;;;;;;;;;5001827;28;20250;-71
2024/03/14 12:09:30;;;;;;;0.10;0.10;;;;;;;;;;5036348;28;20238;-72
2024/03/14 12:11:57;;;;;;;0.10;0.10;;;;;;;;;;5002508;28;20243;-72
2024/03/14 12:14:23;;;;;;;0.07;0.07;;;;;;;;;;5036982;28;20211;-72
2024/03/14 12:16:50;;;;;;;0.10;0.10;;;;;;;;;;5001680;28;20260;-72
2024/03/14 12:19:16;;;;;;;0.10;0.10;;;;;;;;;;5036103;28;20465;-72
2024/03/14 12:21:42;;;;;;;0.00;0.00;;;;;;;;;;5002612;28;20242;-72
2024/03/14 12:24:12;;;;;;;0.28;0.28;;;;;;;;;;5036768;28;20528;-72
2024/03/14 12:26:39;;;;;;;0.10;0.10;;;;;;;;;;5007050;28;20241;-73
2024/03/14 12:29:06;;;;;;;0.10;0.10;;;;;;;;;;5037951;28;20268;-72
2024/03/14 12:31:32;;;;;;;0.10;0.10;;;;;;;;;;5007696;28;20245;-71
2024/03/14 12:33:59;;;;;;;0.10;0.10;;;;;;;;;;5037409;28;20454;-72
2024/03/14 12:36:25;;;;;;;0.10;0.10;;;;;;;;;;5008156;28;20244;-72
2024/03/14 12:38:52;;;;;;;0.03;0.03;;;;;;;;;;5036353;28;20266;-70
2024/03/14 12:41:19;;;;;;;0.10;0.10;;;;;;;;;;5009232;28;20261;-70
2024/03/14 12:43:46;;;;;;;0.10;0.10;;;;;;;;;;5035295;28;20206;-70
2024/03/14 12:46:13;;;;;;;0.10;0.10;;;;;;;;;;5010007;28;20265;-70
2024/03/14 12:48:40;;;;;;;0.10;0.10;;;;;;;;;;5034493;28;20225;-71
2024/03/14 12:51:10;;;;;;;0.20;0.20;;;;;;;;;;5010757;28;20484;-74
2024/03/14 12:53:37;;;;;;;0.10;0.10;;;;;;;;;;5033747;28;20281;-73
2024/03/14 12:56:04;;;;;;;0.10;0.10;;;;;;;;;;5011245;28;20241;-72
2024/03/14 12:58:32;;;;;;;0.10;0.10;;;;;;;;;;5032750;28;20208;-71
2024/03/14 13:01:00;;;;;;;0.10;0.10;;;;;;;;;;5011582;28;20292;-71
2024/03/14 13:03:27;;;;;;;0.10;0.10;;;;;;;;;;5032350;28;20206;-72
2024/03/14 13:05:55;;;;;;;0.10;0.10;;;;;;;;;;5012298;28;20246;-71
2024/03/14 13:08:22;;;;;;;0.10;0.10;;;;;;;;;;5031074;28;20279;-72
2024/03/14 13:10:51;;;;;;;0.10;0.10;;;;;;;;;;5012756;28;20252;-72
2024/03/14 13:13:20;;;;;;;0.10;0.10;;;;;;;;;;5031028;28;20205;-72
2024/03/14 13:15:50;;;;;;;0.10;0.10;;;;;;;;;;5013285;28;20244;-72
2024/03/14 13:18:18;;;;;;;0.20;0.20;;;;;;;;;;5030292;28;20454;-72
2024/03/14 13:20:55;;;;;;;0.10;0.10;;;;;;;;;;5013408;28;20240;-73
2024/03/14 13:23:21;;;;;;;0.10;0.10;;;;;;;;;;5031307;28;20489;-73
2024/03/14 13:25:48;;;;;;;0.10;0.10;;;;;;;;;;5012616;28;20245;-73
2024/03/14 13:28:14;;;;;;;0.10;0.10;;;;;;;;;;5030388;28;20280;-73
2024/03/14 13:30:41;;;;;;;0.10;0.10;;;;;;;;;;5013650;28;20248;-73
2024/03/14 13:33:10;;;;;;;0.10;0.10;;;;;;;;;;5029225;28;20205;-73
2024/03/14 13:35:39;;;;;;;0.10;0.10;;;;;;;;;;5014000;28;20252;-73
2024/03/14 13:38:06;;;;;;;0.10;0.10;;;;;;;;;;5028373;28;20447;-73
2024/03/14 13:40:34;;;;;;;0.10;0.10;;;;;;;;;;5014250;28;20246;-73
2024/03/14 13:43:01;;;;;;;0.10;0.10;;;;;;;;;;5028053;28;20264;-72
2024/03/14 13:45:28;;;;;;;0.10;0.10;;;;;;;;;;5014420;28;20441;-73
2024/03/14 13:47:55;;;;;;;0.00;0.00;;;;;;;;;;5027143;28;20281;-72
2024/03/14 13:50:21;;;;;;;0.10;0.10;;;;;;;;;;5014176;28;20220;-73
2024/03/14 13:52:48;;;;;;;0.08;0.08;;;;;;;;;;5026270;28;20453;-74
2024/03/14 13:55:28;;;;;;;0.00;0.00;;;;;;;;;;5014368;28;20212;-74
2024/03/14 13:57:55;;;;;;;0.10;0.10;;;;;;;;;;5025316;28;20205;-74
2024/03/14 14:00:28;;;;;;;0.10;0.10;;;;;;;;;;5014287;28;20208;-73
2024/03/14 14:02:57;;;;;;;0.10;0.10;;;;;;;;;;5025949;28;20212;-72
2024/03/14 14:05:25;;;;;;;0.00;0.00;;;;;;;;;;5013807;28;20256;-73
2024/03/14 14:07:52;;;;;;;0.10;0.10;;;;;;;;;;5026276;28;20198;-72
2024/03/14 14:10:19;;;;;;;0.10;0.10;;;;;;;;;;5013909;28;20477;-71
2024/03/14 14:12:46;;;;;;;0.10;0.10;;;;;;;;;;5025585;28;20206;-71
2024/03/14 14:15:14;;;;;;;0.10;0.10;;;;;;;;;;5013656;28;20214;-71
2024/03/14 14:17:40;;;;;;;0.10;0.10;;;;;;;;;;5024536;28;20260;-71
2024/03/14 14:20:11;;;;;;;0.05;0.05;;;;;;;;;;5023816;28;20435;-72
2024/03/14 14:22:38;;;;;;;0.10;0.10;;;;;;;;;;5017834;28;20248;-72
2024/03/14 14:25:04;;;;;;;0.10;0.10;;;;;;;;;;5043494;28;20236;-71
2024/03/14 14:27:31;;;;;;;0.10;0.10;;;;;;;;;;5014627;28;20277;-72
2024/03/14 14:29:57;;;;;;;0.20;0.20;;;;;;;;;;5023550;28;20226;-72
2024/03/14 14:32:24;;;;;;;0.10;0.10;;;;;;;;;;4998548;28;20250;-72
2024/03/14 14:34:50;;;;;;;0.00;0.00;;;;;;;;;;5023606;28;20625;-72
2024/03/14 14:37:18;;;;;;;0.10;0.10;;;;;;;;;;4999300;28;20269;-72
2024/03/14 14:39:44;;;;;;;0.10;0.10;;;;;;;;;;5023414;28;20218;-71
2024/03/14 14:42:13;;;;;;;0.10;0.10;;;;;;;;;;5000259;28;20296;-72
2024/03/14 14:44:39;;;;;;;0.10;0.10;;;;;;;;;;5023568;28;20206;-72